createdAt,value
2019-05-09T00:00:05.020Z,99.90
2019-05-09T00:05:54.612Z,99.90
2019-05-09T00:08:58.851Z,99.90
2019-05-09T00:12:34.219Z,99.90
2019-05-09T00:14:47.409Z,99.90
2019-05-09T00:17:35.715Z,99.90
2019-05-09T00:20:09.742Z,99.90
2019-05-09T00:22:43.560Z,99.90
2019-05-09T00:25:53.832Z,99.90
2019-05-09T00:28:54.233Z,99.90
2019-05-09T00:31:41.051Z,99.90
2019-05-09T00:34:17.385Z,99.90
2019-05-09T00:36:47.947Z,99.90
2019-05-09T00:39:16.950Z,99.90
2019-05-09T00:41:53.840Z,99.90
2019-05-09T00:44:33.882Z,99.90
2019-05-09T00:47:04.379Z,99.90
2019-05-09T00:49:34.197Z,99.90
2019-05-09T00:52:05.930Z,99.90
2019-05-09T00:54:39.324Z,99.90
2019-05-09T00:57:13.737Z,99.90
2019-05-09T00:59:44.616Z,99.90
2019-05-09T01:02:13.246Z,99.90
2019-05-09T01:04:45.607Z,99.90
2019-05-09T01:07:14.563Z,99.90
2019-05-09T01:09:44.645Z,99.90
2019-05-09T01:12:14.351Z,99.90
2019-05-09T01:18:10.232Z,99.90
2019-05-09T01:21:08.169Z,99.90
2019-05-09T01:23:44.055Z,99.90
2019-05-09T01:26:14.357Z,99.90
2019-05-09T01:28:45.216Z,99.90
2019-05-09T01:31:17.039Z,99.90
2019-05-09T01:33:50.342Z,99.90
2019-05-09T01:36:28.637Z,99.90
2019-05-09T01:38:59.169Z,99.90
2019-05-09T01:41:33.926Z,99.90
2019-05-09T01:44:04.074Z,99.90
2019-05-09T01:49:53.865Z,99.90
2019-05-09T01:52:28.167Z,99.90
2019-05-09T01:55:03.558Z,99.90
2019-05-09T01:57:35.267Z,99.90
2019-05-09T02:00:24.012Z,99.90
2019-05-09T02:02:58.745Z,99.90
2019-05-09T02:05:30.570Z,99.90
2019-05-09T02:28:07.768Z,99.90
2019-05-09T02:53:58.471Z,99.90
2019-05-09T02:56:39.603Z,99.90
2019-05-09T02:59:59.627Z,99.90
2019-05-09T03:03:08.933Z,99.90
2019-05-09T03:05:44.782Z,99.90
2019-05-09T03:15:24.713Z,99.90
2019-05-09T03:24:18.788Z,99.90
2019-05-09T03:27:18.768Z,99.90
2019-05-09T03:29:54.760Z,99.90
2019-05-09T03:32:23.694Z,99.90
2019-05-09T03:34:58.215Z,99.90
2019-05-09T03:38:22.587Z,99.90
2019-05-09T03:40:54.567Z,99.90
2019-05-09T03:43:24.257Z,99.90
2019-05-09T03:46:11.087Z,99.90
2019-05-09T03:48:53.871Z,99.90
2019-05-09T03:51:27.463Z,99.90
2019-05-09T03:53:57.580Z,99.90
2019-05-09T03:56:28.124Z,99.90
2019-05-09T03:59:01.441Z,99.90
2019-05-09T04:01:30.923Z,99.90
2019-05-09T04:04:30.045Z,99.90
2019-05-09T04:06:59.402Z,99.90
2019-05-09T04:09:28.643Z,99.90
2019-05-09T04:11:59.880Z,99.90
2019-05-09T04:14:32.161Z,99.90
2019-05-09T04:17:04.530Z,99.90
2019-05-09T04:19:38.053Z,99.90
2019-05-09T04:22:09.797Z,99.90
2019-05-09T04:24:38.707Z,99.90
2019-05-09T04:27:11.863Z,99.90
2019-05-09T04:29:40.651Z,99.90
2019-05-09T04:32:15.239Z,99.90
2019-05-09T04:34:44.267Z,99.90
2019-05-09T04:37:24.681Z,99.90
2019-05-09T04:39:53.938Z,99.90
2019-05-09T04:42:24.621Z,99.90
2019-05-09T04:45:03.243Z,99.90
2019-05-09T04:47:28.949Z,99.90
2019-05-09T04:49:58.378Z,99.90
2019-05-09T04:52:31.754Z,99.90
2019-05-09T04:55:02.297Z,99.90
2019-05-09T04:57:31.295Z,99.90
2019-05-09T05:00:00.174Z,99.90
2019-05-09T05:02:39.712Z,99.90
2019-05-09T05:05:09.001Z,99.90
2019-05-09T05:07:37.929Z,99.90
2019-05-09T05:10:09.186Z,99.90
2019-05-09T05:12:38.166Z,99.90
2019-05-09T05:15:08.119Z,99.90
2019-05-09T05:17:47.747Z,99.90
2019-05-09T05:20:18.413Z,99.90
2019-05-09T05:22:48.161Z,99.90
2019-05-09T05:25:17.836Z,99.90
2019-05-09T05:27:47.496Z,99.90
2019-05-09T05:30:52.683Z,99.90
2019-05-09T05:33:27.862Z,99.90
2019-05-09T05:39:01.168Z,99.90
2019-05-09T05:41:34.247Z,99.90
2019-05-09T05:44:09.250Z,99.90
2019-05-09T05:46:38.136Z,99.90
2019-05-09T05:49:18.648Z,99.90
2019-05-09T05:51:50.705Z,99.90
2019-05-09T05:54:28.503Z,99.90
2019-05-09T05:56:57.968Z,99.90
2019-05-09T05:59:28.599Z,99.90
2019-05-09T06:01:58.292Z,99.90
2019-05-09T06:04:30.162Z,99.90
2019-05-09T06:06:59.033Z,99.90
2019-05-09T06:09:28.191Z,99.90
2019-05-09T06:11:57.744Z,99.90
2019-05-09T06:14:28.411Z,99.90
2019-05-09T06:16:58.978Z,99.90
2019-05-09T06:19:29.309Z,99.90
2019-05-09T06:21:59.977Z,99.90
2019-05-09T06:24:31.391Z,99.90
2019-05-09T06:27:07.858Z,99.90
2019-05-09T06:29:57.943Z,99.90
2019-05-09T06:32:29.125Z,99.90
2019-05-09T06:34:58.118Z,99.90
2019-05-09T06:37:27.675Z,99.90
2019-05-09T06:40:01.131Z,99.90
2019-05-09T06:42:41.618Z,99.90
2019-05-09T06:45:14.941Z,99.90
2019-05-09T06:47:45.105Z,99.90
2019-05-09T06:50:15.354Z,99.90
2019-05-09T06:52:43.841Z,99.90
2019-05-09T06:55:12.580Z,99.90
2019-05-09T06:57:42.951Z,99.90
2019-05-09T07:00:28.236Z,99.90
2019-05-09T07:03:00.916Z,99.90
2019-05-09T07:05:34.178Z,99.90
2019-05-09T07:08:08.104Z,99.90
2019-05-09T07:10:37.719Z,99.90
2019-05-09T07:13:07.903Z,99.90
2019-05-09T07:15:44.630Z,99.90
2019-05-09T07:18:32.439Z,99.90
2019-05-09T07:21:08.282Z,99.90
2019-05-09T07:23:37.427Z,99.90
2019-05-09T07:26:14.017Z,99.90
2019-05-09T07:28:42.614Z,99.90
2019-05-09T07:31:12.732Z,99.90
2019-05-09T07:33:42.948Z,99.90
2019-05-09T07:36:11.586Z,99.90
2019-05-09T07:38:40.182Z,99.90
2019-05-09T07:41:09.193Z,99.90
2019-05-09T07:43:38.484Z,99.90
2019-05-09T07:46:09.152Z,99.90
2019-05-09T07:48:38.720Z,99.90
2019-05-09T07:51:08.033Z,99.90
2019-05-09T07:53:38.082Z,99.90
2019-05-09T07:56:07.972Z,99.90
2019-05-09T07:58:37.724Z,99.90
2019-05-09T08:01:10.176Z,99.90
2019-05-09T08:03:38.916Z,99.90
2019-05-09T08:06:08.945Z,99.90
2019-05-09T08:08:43.560Z,99.90
2019-05-09T08:11:12.048Z,99.90
2019-05-09T08:13:40.727Z,99.90
2019-05-09T08:16:14.776Z,99.90
2019-05-09T08:18:42.909Z,99.90
2019-05-09T08:21:18.083Z,99.90
2019-05-09T08:23:48.524Z,99.90
2019-05-09T08:26:18.925Z,99.90
2019-05-09T08:28:48.102Z,99.90
2019-05-09T08:31:17.816Z,99.90
2019-05-09T08:33:48.439Z,99.90
2019-05-09T08:36:32.248Z,99.90
2019-05-09T08:39:00.730Z,99.90
2019-05-09T08:41:32.425Z,99.90
2019-05-09T08:44:04.208Z,99.90
2019-05-09T08:46:33.205Z,99.90
2019-05-09T08:49:01.656Z,99.90
2019-05-09T08:51:38.900Z,99.90
2019-05-09T08:54:09.889Z,99.90
2019-05-09T08:56:41.726Z,99.90
2019-05-09T08:59:11.061Z,99.90
2019-05-09T09:01:54.443Z,99.90
2019-05-09T09:04:11.972Z,99.90
2019-05-09T09:06:41.009Z,99.90
2019-05-09T09:09:09.764Z,99.90
2019-05-09T09:11:47.713Z,99.90
2019-05-09T09:14:18.372Z,99.90
2019-05-09T09:16:48.199Z,99.90
2019-05-09T09:20:37.874Z,99.50
2019-05-09T09:22:20.436Z,99.20
2019-05-09T09:24:50.033Z,99.90
2019-05-09T09:27:20.629Z,99.90
2019-05-09T09:29:52.481Z,99.90
2019-05-09T09:33:00.226Z,99.90
2019-05-09T09:35:32.901Z,99.90
2019-05-09T09:38:01.460Z,99.90
2019-05-09T09:46:58.043Z,99.90
2019-05-09T09:49:25.625Z,99.90
2019-05-09T09:52:08.602Z,99.90
2019-05-09T09:54:41.155Z,99.90
2019-05-09T09:57:09.931Z,99.90
2019-05-09T10:02:37.909Z,99.90
2019-05-09T10:05:07.859Z,99.90
2019-05-09T10:07:40.790Z,99.90
2019-05-09T10:10:13.745Z,99.90
2019-05-09T10:12:45.149Z,99.90
2019-05-09T10:15:38.284Z,99.90
2019-05-09T10:18:08.298Z,99.90
2019-05-09T10:20:58.604Z,99.90
2019-05-09T10:25:03.040Z,99.90
2019-05-09T10:29:01.814Z,99.90
2019-05-09T10:31:30.272Z,99.90
2019-05-09T10:34:28.832Z,99.90
2019-05-09T10:37:00.808Z,99.90
2019-05-09T10:39:34.714Z,99.90
2019-05-09T10:42:19.938Z,99.90
2019-05-09T10:44:58.229Z,99.90
2019-05-09T10:47:50.611Z,99.90
2019-05-09T10:50:20.188Z,99.90
2019-05-09T10:52:54.884Z,99.80
2019-05-09T10:55:23.654Z,99.90
2019-05-09T10:58:08.398Z,99.90
2019-05-09T11:03:37.721Z,99.70
2019-05-09T11:06:08.620Z,99.90
2019-05-09T11:08:38.042Z,99.90
2019-05-09T11:11:09.494Z,99.30
2019-05-09T11:13:38.959Z,99.90
2019-05-09T11:16:07.813Z,99.70
2019-05-09T11:18:36.303Z,99.70
2019-05-09T11:21:04.989Z,99.90
2019-05-09T11:23:33.490Z,99.80
2019-05-09T11:26:01.924Z,99.40
2019-05-09T11:28:30.411Z,99.20
2019-05-09T11:30:58.887Z,97.60
2019-05-09T11:33:27.933Z,98.30
2019-05-09T11:35:58.068Z,97.00
2019-05-09T11:38:33.303Z,97.50
2019-05-09T11:40:57.913Z,98.80
2019-05-09T11:43:26.599Z,97.40
2019-05-09T11:45:55.093Z,97.40
2019-05-09T11:48:23.515Z,97.40
2019-05-09T11:50:52.136Z,97.90
2019-05-09T11:53:20.816Z,97.40
2019-05-09T11:55:49.413Z,97.00
2019-05-09T11:58:18.257Z,97.10
2019-05-09T12:00:48.273Z,96.10
2019-05-09T12:03:18.745Z,95.90
2019-05-09T12:05:47.614Z,95.90
2019-05-09T12:08:17.707Z,97.00
2019-05-09T12:10:46.356Z,97.60
2019-05-09T12:13:14.886Z,97.50
2019-05-09T12:15:43.299Z,96.60
2019-05-09T12:18:11.887Z,95.70
2019-05-09T12:20:40.512Z,96.40
2019-05-09T12:23:09.025Z,96.20
2019-05-09T12:25:38.614Z,96.60
2019-05-09T12:28:07.950Z,98.00
2019-05-09T12:30:37.943Z,97.60
2019-05-09T12:33:08.625Z,98.40
2019-05-09T12:35:38.556Z,98.30
2019-05-09T12:38:08.337Z,98.50
2019-05-09T12:40:38.905Z,98.20
2019-05-09T12:43:09.111Z,97.00
2019-05-09T12:45:38.816Z,97.60
2019-05-09T12:48:15.122Z,98.00
2019-05-09T12:50:38.812Z,98.20
2019-05-09T12:53:07.605Z,97.70
2019-05-09T12:55:38.468Z,98.20
2019-05-09T12:58:09.765Z,98.30
2019-05-09T13:00:38.569Z,98.70
2019-05-09T13:03:08.361Z,98.70
2019-05-09T13:05:38.865Z,98.40
2019-05-09T13:08:10.393Z,98.30
2019-05-09T13:10:37.931Z,98.30
2019-05-09T13:13:08.627Z,97.80
2019-05-09T13:15:38.502Z,98.10
2019-05-09T13:18:21.367Z,98.50
2019-05-09T13:20:39.072Z,97.60
2019-05-09T13:23:08.928Z,97.70
2019-05-09T13:25:38.089Z,97.10
2019-05-09T13:28:08.291Z,96.90
2019-05-09T13:30:38.012Z,96.00
2019-05-09T13:33:10.473Z,95.80
2019-05-09T13:35:39.300Z,95.40
2019-05-09T13:38:08.689Z,95.10
2019-05-09T13:40:37.503Z,94.70
2019-05-09T13:43:08.674Z,95.50
2019-05-09T13:45:36.132Z,94.80
2019-05-09T13:48:22.175Z,95.70
2019-05-09T13:50:34.837Z,95.80
2019-05-09T13:53:03.373Z,95.20
2019-05-09T13:55:31.809Z,95.20
2019-05-09T13:58:00.264Z,94.40
2019-05-09T14:00:28.987Z,94.20
2019-05-09T14:02:57.576Z,94.30
2019-05-09T14:05:28.858Z,93.30
2019-05-09T14:08:02.658Z,93.40
2019-05-09T14:10:28.847Z,92.40
2019-05-09T14:13:06.841Z,93.20
2019-05-09T14:15:27.569Z,93.90
2019-05-09T14:17:58.111Z,95.70
2019-05-09T14:20:27.516Z,96.20
2019-05-09T14:22:57.702Z,94.60
2019-05-09T14:25:28.927Z,95.10
2019-05-09T14:27:56.469Z,94.90
2019-05-09T14:30:27.381Z,96.20
2019-05-09T14:32:55.122Z,96.60
2019-05-09T14:35:23.553Z,96.40
2019-05-09T14:37:52.040Z,97.00
2019-05-09T14:40:20.477Z,99.60
2019-05-09T14:42:49.504Z,99.90
2019-05-09T14:45:18.305Z,99.90
2019-05-09T14:47:46.813Z,99.90
2019-05-09T14:50:17.423Z,99.90
2019-05-09T14:52:45.529Z,99.90
2019-05-09T14:55:14.102Z,99.90
2019-05-09T14:57:42.568Z,99.90
2019-05-09T15:00:12.719Z,99.90
2019-05-09T15:02:41.331Z,99.90
2019-05-09T15:05:09.898Z,99.90
2019-05-09T15:07:39.108Z,99.90
2019-05-09T15:10:08.651Z,99.90
2019-05-09T15:12:39.124Z,99.90
2019-05-09T15:15:08.606Z,99.90
2019-05-09T15:17:37.561Z,99.90
2019-05-09T15:20:08.891Z,99.90
2019-05-09T15:22:38.762Z,99.90
2019-05-09T15:25:08.831Z,99.90
2019-05-09T15:27:38.481Z,99.90
2019-05-09T15:30:08.660Z,98.50
2019-05-09T15:32:37.746Z,97.10
2019-05-09T15:35:08.846Z,99.30
2019-05-09T15:37:38.606Z,99.90
2019-05-09T15:40:08.864Z,99.90
2019-05-09T15:42:38.879Z,99.90
2019-05-09T15:45:08.288Z,99.90
2019-05-09T15:47:37.853Z,99.90
2019-05-09T15:50:16.588Z,99.90
2019-05-09T15:52:38.256Z,99.90
2019-05-09T15:55:09.517Z,99.90
2019-05-09T15:57:37.904Z,99.30
2019-05-09T16:00:11.103Z,97.30
2019-05-09T16:02:39.660Z,99.20
2019-05-09T16:05:10.514Z,99.90
2019-05-09T16:07:38.640Z,99.90
2019-05-09T16:10:08.613Z,98.80
2019-05-09T16:12:38.446Z,97.20
2019-05-09T16:15:07.887Z,94.40
2019-05-09T16:17:39.020Z,92.10
2019-05-09T16:20:08.453Z,92.90
2019-05-09T16:22:39.164Z,92.50
2019-05-09T16:25:08.955Z,92.60
2019-05-09T16:27:38.046Z,91.90
2019-05-09T16:30:08.613Z,92.50
2019-05-09T16:32:37.832Z,94.90
2019-05-09T16:35:08.033Z,96.10
2019-05-09T16:37:57.286Z,96.40
2019-05-09T16:40:08.601Z,97.40
2019-05-09T16:42:38.168Z,95.90
2019-05-09T16:45:08.427Z,95.60
2019-05-09T16:47:36.961Z,95.90
2019-05-09T16:50:10.012Z,97.30
2019-05-09T16:52:43.134Z,96.70
2019-05-09T16:55:10.379Z,96.40
2019-05-09T16:57:38.829Z,96.60
2019-05-09T17:00:10.184Z,97.20
2019-05-09T17:02:38.628Z,97.60
2019-05-09T17:05:08.366Z,97.50
2019-05-09T17:07:40.473Z,97.40
2019-05-09T17:10:13.702Z,97.70
2019-05-09T17:15:38.726Z,96.30
2019-05-09T17:18:09.898Z,97.30
2019-05-09T17:23:41.719Z,96.30
2019-05-09T17:26:10.425Z,95.80
2019-05-09T17:28:50.036Z,96.30
2019-05-09T17:31:20.340Z,96.40
2019-05-09T17:40:08.035Z,96.40
2019-05-09T17:42:38.182Z,96.00
2019-05-09T17:45:28.322Z,95.10
2019-05-09T17:47:59.822Z,93.00
2019-05-09T17:50:31.518Z,93.60
2019-05-09T17:53:08.431Z,94.20
2019-05-09T17:55:30.456Z,94.30
2019-05-09T17:57:59.408Z,94.00
2019-05-09T18:00:38.857Z,94.20
2019-05-09T18:03:10.368Z,94.40
2019-05-09T18:05:39.510Z,94.60
2019-05-09T18:08:08.600Z,95.20
2019-05-09T18:10:38.918Z,95.70
2019-05-09T18:13:08.172Z,96.30
2019-05-09T18:15:41.124Z,96.30
2019-05-09T18:18:10.196Z,96.50
2019-05-09T18:20:39.153Z,96.20
2019-05-09T18:23:13.612Z,96.10
2019-05-09T18:25:43.948Z,96.60
2019-05-09T18:28:12.426Z,96.90
2019-05-09T18:30:40.961Z,96.50
2019-05-09T18:33:11.219Z,99.90
2019-05-09T18:35:51.480Z,99.90
2019-05-09T18:38:27.913Z,99.90
2019-05-09T18:40:57.935Z,99.90
2019-05-09T18:43:32.476Z,99.90
2019-05-09T18:46:08.395Z,99.90
2019-05-09T18:48:38.802Z,99.90
2019-05-09T18:51:11.232Z,99.90
2019-05-09T18:53:40.101Z,99.90
2019-05-09T18:56:08.844Z,99.90
2019-05-09T18:58:37.346Z,99.90
2019-05-09T19:06:55.060Z,99.90
2019-05-09T19:09:29.983Z,99.90
2019-05-09T19:12:13.723Z,99.90
2019-05-09T19:15:09.438Z,99.90
2019-05-09T19:17:57.865Z,99.90
2019-05-09T19:23:15.729Z,99.90
2019-05-09T19:29:31.822Z,99.90
2019-05-09T19:32:00.845Z,99.90
2019-05-09T19:37:24.950Z,99.90
2019-05-09T19:49:35.261Z,99.90
2019-05-09T19:52:06.272Z,99.90
2019-05-09T20:15:13.074Z,99.90
2019-05-09T20:17:44.731Z,99.90
2019-05-09T20:20:20.784Z,99.90
2019-05-09T20:22:53.087Z,99.90
2019-05-09T20:25:32.979Z,99.90
2019-05-09T20:28:06.426Z,99.90
2019-05-09T20:31:25.979Z,99.90
2019-05-09T20:40:47.264Z,99.90
2019-05-09T20:43:28.750Z,99.90
2019-05-09T20:46:17.406Z,99.90
2019-05-09T20:51:36.168Z,99.90
2019-05-09T20:57:53.526Z,99.90
2019-05-09T21:00:43.266Z,99.90
2019-05-09T21:03:33.299Z,99.90
2019-05-09T21:06:20.192Z,99.90
2019-05-09T21:19:48.336Z,99.90
2019-05-09T21:22:20.402Z,99.90
2019-05-09T21:24:50.010Z,99.90
2019-05-09T21:44:30.375Z,99.90
2019-05-09T22:20:20.024Z,99.90
2019-05-09T22:26:39.425Z,99.90
2019-05-09T22:29:12.404Z,99.90
2019-05-09T22:31:41.247Z,99.90
2019-05-09T22:37:20.683Z,99.90
2019-05-09T22:39:59.919Z,99.90
2019-05-09T22:55:00.181Z,99.90
2019-05-09T22:57:33.507Z,99.90
2019-05-09T23:00:07.061Z,99.90
2019-05-09T23:02:44.560Z,99.90
2019-05-09T23:05:18.085Z,99.90
2019-05-09T23:07:50.023Z,99.90
2019-05-09T23:11:12.871Z,99.90
2019-05-09T23:13:52.364Z,99.90
2019-05-09T23:16:25.952Z,99.90
2019-05-09T23:18:55.217Z,99.90
2019-05-09T23:21:25.458Z,99.90
2019-05-09T23:24:03.208Z,99.90
2019-05-09T23:26:38.553Z,99.90
2019-05-09T23:29:07.329Z,99.90
2019-05-09T23:31:37.793Z,99.90
2019-05-09T23:34:08.031Z,99.90
2019-05-09T23:36:36.907Z,99.90
2019-05-09T23:39:14.266Z,99.90
2019-05-09T23:41:42.905Z,99.90
2019-05-09T23:44:20.525Z,99.90
2019-05-09T23:46:49.370Z,99.90
2019-05-09T23:49:18.181Z,99.90
2019-05-09T23:51:51.861Z,99.90
2019-05-09T23:54:48.167Z,99.90
2019-05-09T23:57:43.510Z,99.90
